Time;durP1;ratioP1;P1;durP2;ratioP2;P2;SDS_P1;SDS_P2;PMS_P1;PMS_P2;Temp;Humidity;BMP_temperature;BMP_pressure;BME280_temperature;BME280_humidity;BME280_pressure;Samples;Min_cycle;Max_cycle;Signal;HPM_P1;HPM_P2
2022/10/05 00:02:31;;;;;;;0.10;0.10;;;;;;;8.57;100.00;96995.09;5071195;28;20036;-74
2022/10/05 00:05:25;;;;;;;0.10;0.10;;;;;;;8.53;100.00;96985.88;5089197;28;20043;-75
2022/10/05 00:08:18;;;;;;;0.10;0.10;;;;;;;8.50;100.00;96981.00;5088786;28;20400;-74
2022/10/05 00:11:07;;;;;;;0.10;0.10;;;;;;;8.45;100.00;96980.84;5092315;28;20331;-74
2022/10/05 00:13:53;;;;;;;0.10;0.10;;;;;;;8.36;100.00;96979.50;5090337;28;20039;-74
2022/10/05 00:16:39;;;;;;;0.10;0.10;;;;;;;8.24;100.00;96968.72;5087569;28;20122;-73
2022/10/05 00:19:28;;;;;;;0.10;0.10;;;;;;;8.19;100.00;96984.59;5089664;28;20055;-74
2022/10/05 00:22:19;;;;;;;0.10;0.10;;;;;;;8.18;100.00;96988.28;5072531;27;20256;-73
2022/10/05 00:25:10;;;;;;;;;;;;;;;8.11;100.00;96982.19;5089572;27;20036;-74
2022/10/05 00:27:59;;;;;;;0.10;0.10;;;;;;;7.99;100.00;96984.75;5091081;28;20264;-74
2022/10/05 00:30:45;;;;;;;0.10;0.10;;;;;;;8.01;100.00;96990.69;5089905;28;20036;-74
2022/10/05 00:33:30;;;;;;;0.10;0.10;;;;;;;8.05;100.00;96989.22;5070545;28;20671;-74
2022/10/05 00:36:17;;;;;;;0.10;0.10;;;;;;;8.07;100.00;96989.81;5086761;28;20040;-74
2022/10/05 00:39:04;;;;;;;0.10;0.10;;;;;;;8.07;100.00;96997.81;5091495;28;20502;-75
2022/10/05 00:41:59;;;;;;;0.10;0.10;;;;;;;8.00;100.00;96986.38;5090676;28;20104;-74
2022/10/05 00:45:09;;;;;;;0.10;0.10;;;;;;;8.15;100.00;96987.91;5090915;28;20101;-74
2022/10/05 00:48:07;;;;;;;0.15;0.10;;;;;;;8.32;100.00;96981.75;5074974;28;20375;-73
2022/10/05 00:50:59;;;;;;;0.40;0.10;;;;;;;8.27;100.00;96975.47;5058813;28;20543;-73
2022/10/05 00:54:41;;;;;;;0.10;0.10;;;;;;;8.33;100.00;96974.59;5085902;28;20450;-74
2022/10/05 00:57:59;;;;;;;0.10;0.10;;;;;;;8.26;100.00;96972.00;5073346;28;20047;-73
2022/10/05 01:01:10;;;;;;;0.10;0.10;;;;;;;8.27;100.00;96975.47;5073536;28;20123;-75
2022/10/05 01:04:15;;;;;;;;;;;;;;;8.35;100.00;96965.38;5090060;28;20492;-73
2022/10/05 01:07:14;;;;;;;0.10;0.10;;;;;;;8.42;100.00;96959.16;5088565;28;20149;-73
2022/10/05 01:10:32;;;;;;;0.10;0.10;;;;;;;8.51;100.00;96952.47;5074145;28;20380;-74
2022/10/05 01:13:34;;;;;;;0.10;0.10;;;;;;;8.47;100.00;96949.41;5089944;28;20092;-74
2022/10/05 01:16:28;;;;;;;0.13;0.10;;;;;;;8.39;100.00;96944.38;5086177;28;20067;-75
2022/10/05 01:19:42;;;;;;;0.10;0.10;;;;;;;8.30;100.00;96943.03;5072060;28;20517;-75
2022/10/05 01:22:34;;;;;;;0.10;0.10;;;;;;;8.25;100.00;96940.19;5087343;28;20055;-74
2022/10/05 01:25:30;;;;;;;0.10;0.10;;;;;;;8.15;100.00;96929.25;5086533;28;20213;-75
2022/10/05 01:28:49;;;;;;;0.10;0.10;;;;;;;8.05;100.00;96913.78;5087831;28;20768;-75
2022/10/05 01:31:47;;;;;;;0.10;0.10;;;;;;;7.99;100.00;96907.47;5061982;28;20079;-75
2022/10/05 01:35:00;;;;;;;0.10;0.10;;;;;;;7.99;100.00;96920.78;5089679;28;20040;-75
2022/10/05 01:37:46;;;;;;;0.10;0.10;;;;;;;7.96;100.00;96915.09;5086003;28;20066;-75
2022/10/05 01:40:48;;;;;;;0.10;0.10;;;;;;;7.94;100.00;96912.66;5089072;28;20042;-76
2022/10/05 01:43:45;;;;;;;0.10;0.10;;;;;;;7.89;100.00;96904.50;5070954;28;20035;-75
2022/10/05 01:46:39;;;;;;;0.10;0.10;;;;;;;7.88;100.00;96897.56;5085681;28;20726;-75
2022/10/05 01:50:10;;;;;;;0.10;0.10;;;;;;;7.85;100.00;96902.50;5085412;28;20337;-75
2022/10/05 01:53:51;;;;;;;0.10;0.10;;;;;;;7.81;100.00;96900.28;5074123;28;20539;-74
2022/10/05 01:56:45;;;;;;;0.10;0.10;;;;;;;7.81;100.00;96905.59;5011644;28;20037;-75
2022/10/05 02:00:09;;;;;;;0.10;0.10;;;;;;;7.82;100.00;96911.75;5023072;28;20132;-74
2022/10/05 02:03:12;;;;;;;0.10;0.10;;;;;;;7.79;100.00;96909.53;5088657;28;20156;-75
2022/10/05 02:06:12;;;;;;;0.10;0.10;;;;;;;7.72;100.00;96911.44;5072177;28;20225;-74
2022/10/05 02:09:14;;;;;;;0.10;0.10;;;;;;;7.65;100.00;96916.00;5088075;28;20087;-75
2022/10/05 02:12:04;;;;;;;0.10;0.10;;;;;;;7.60;100.00;96921.16;5074500;28;20036;-75
2022/10/05 02:14:55;;;;;;;0.10;0.10;;;;;;;7.51;100.00;96921.44;5075205;28;20632;-76
2022/10/05 02:17:48;;;;;;;0.10;0.10;;;;;;;7.51;100.00;96931.28;5068142;28;20035;-75
2022/10/05 02:20:37;;;;;;;0.10;0.10;;;;;;;7.39;100.00;96925.84;5075346;28;20035;-75
2022/10/05 02:23:32;;;;;;;0.10;0.10;;;;;;;7.33;100.00;96924.06;5086281;28;20347;-76
2022/10/05 02:26:18;;;;;;;0.10;0.10;;;;;;;7.37;100.00;96932.41;5085567;28;20592;-76
2022/10/05 02:29:09;;;;;;;0.10;0.10;;;;;;;7.29;100.00;96936.16;5074052;28;20043;-75
2022/10/05 02:32:14;;;;;;;0.10;0.10;;;;;;;7.20;100.00;96929.47;5071671;28;20474;-75
2022/10/05 02:35:08;;;;;;;0.00;0.00;;;;;;;7.23;100.00;96929.84;5072884;28;20278;-74
2022/10/05 02:38:13;;;;;;;0.10;0.10;;;;;;;7.15;100.00;96934.59;5087387;28;20035;-75
2022/10/05 02:41:21;;;;;;;0.10;0.10;;;;;;;7.09;100.00;96927.50;5089040;28;20347;-74
2022/10/05 02:44:24;;;;;;;0.10;0.10;;;;;;;7.14;100.00;96927.66;5088006;28;20042;-76
2022/10/05 02:47:22;;;;;;;0.10;0.10;;;;;;;7.19;100.00;96930.50;5084693;28;20116;-75
2022/10/05 02:50:16;;;;;;;0.10;0.10;;;;;;;7.04;100.00;96922.00;5086520;28;20039;-75
2022/10/05 02:53:22;;;;;;;0.10;0.10;;;;;;;7.01;100.00;96917.13;5087907;28;20039;-75
2022/10/05 02:56:17;;;;;;;0.10;0.10;;;;;;;7.14;100.00;96906.38;5070379;28;20482;-75
2022/10/05 02:59:30;;;;;;;0.10;0.10;;;;;;;7.23;100.00;96913.88;5088695;28;20039;-74
2022/10/05 03:02:39;;;;;;;0.10;0.10;;;;;;;7.29;100.00;96906.88;5081972;28;20572;-74
2022/10/05 03:05:39;;;;;;;0.10;0.10;;;;;;;7.32;100.00;96903.78;5066789;28;20675;-75
2022/10/05 03:08:38;;;;;;;0.10;0.10;;;;;;;7.34;100.00;96904.38;5073157;28;20136;-74
2022/10/05 03:11:33;;;;;;;0.13;0.10;;;;;;;7.37;100.00;96901.28;5086035;28;20040;-75
2022/10/05 03:14:36;;;;;;;0.10;0.10;;;;;;;7.41;100.00;96891.84;5087719;28;20035;-74
2022/10/05 03:17:26;;;;;;;0.10;0.10;;;;;;;7.51;100.00;96894.81;5084750;28;20046;-74
2022/10/05 03:20:42;;;;;;;0.10;0.10;;;;;;;7.83;100.00;96889.41;5090398;28;20148;-75
2022/10/05 03:23:42;;;;;;;0.10;0.10;;;;;;;8.02;100.00;96890.25;5072848;28;20059;-75
2022/10/05 03:26:51;;;;;;;0.10;0.10;;;;;;;8.09;100.00;96889.13;5072896;28;20559;-75
2022/10/05 03:29:46;;;;;;;0.10;0.10;;;;;;;8.12;100.00;96887.88;5092753;28;20043;-75
2022/10/05 03:32:44;;;;;;;0.10;0.10;;;;;;;8.22;100.00;96892.66;5060700;28;20047;-75
2022/10/05 03:36:01;;;;;;;0.17;0.10;;;;;;;8.25;100.00;96897.53;5072215;28;20727;-75
2022/10/05 03:39:10;;;;;;;0.10;0.10;;;;;;;8.24;100.00;96903.91;5085864;28;20043;-75
2022/10/05 03:42:09;;;;;;;0.10;0.10;;;;;;;8.20;100.00;96908.09;5051973;28;20076;-74
2022/10/05 03:45:08;;;;;;;0.10;0.10;;;;;;;8.29;100.00;96904.06;5067032;28;20066;-74
2022/10/05 03:48:32;;;;;;;0.10;0.10;;;;;;;8.52;100.00;96906.91;5086858;28;20105;-74
2022/10/05 03:51:31;;;;;;;0.10;0.10;;;;;;;8.79;100.00;96912.69;5072909;28;20031;-75
2022/10/05 03:54:28;;;;;;;0.10;0.10;;;;;;;8.96;100.00;96915.56;5064500;28;20499;-74
2022/10/05 03:57:24;;;;;;;0.10;0.10;;;;;;;9.08;100.00;96911.06;5072434;28;20218;-74
2022/10/05 04:00:16;;;;;;;0.10;0.10;;;;;;;9.14;100.00;96909.34;5076014;28;20040;-74
2022/10/05 04:03:29;;;;;;;0.20;0.17;;;;;;;8.93;100.00;96891.97;5067780;28;20032;-74
2022/10/05 04:06:23;;;;;;;0.10;0.10;;;;;;;8.65;100.00;96897.94;5070117;28;20036;-74
2022/10/05 04:09:25;;;;;;;0.10;0.10;;;;;;;8.57;100.00;96907.06;5092546;27;20036;-74
2022/10/05 04:12:24;;;;;;;0.10;0.10;;;;;;;8.53;100.00;96907.72;5073268;28;21684;-74
2022/10/05 04:15:23;;;;;;;0.10;0.10;;;;;;;8.53;100.00;96900.53;5063921;28;20027;-75
2022/10/05 04:18:25;;;;;;;0.10;0.10;;;;;;;8.45;100.00;96902.69;5058338;28;20497;-75
2022/10/05 04:21:20;;;;;;;0.10;0.10;;;;;;;8.38;100.00;96900.91;5075383;28;20036;-75
2022/10/05 04:24:17;;;;;;;0.10;0.10;;;;;;;8.35;100.00;96895.22;5077666;28;20044;-74
2022/10/05 04:27:13;;;;;;;0.10;0.10;;;;;;;8.38;100.00;96902.75;5090035;28;20097;-73
2022/10/05 04:30:08;;;;;;;0.10;0.10;;;;;;;8.38;100.00;96890.25;5078638;28;20042;-74
2022/10/05 04:32:56;;;;;;;0.10;0.10;;;;;;;8.32;100.00;96888.44;5076521;28;20454;-74
2022/10/05 04:36:14;;;;;;;0.10;0.10;;;;;;;8.36;100.00;96894.19;5065789;28;20040;-74
2022/10/05 04:39:32;;;;;;;0.10;0.10;;;;;;;8.41;100.00;96894.34;5069734;28;20315;-73
2022/10/05 04:42:47;;;;;;;0.10;0.10;;;;;;;8.41;100.00;96883.66;5044131;28;20083;-73
2022/10/05 04:45:55;;;;;;;0.10;0.10;;;;;;;8.41;100.00;96886.34;5067260;28;20480;-74
2022/10/05 04:49:03;;;;;;;0.10;0.10;;;;;;;8.48;100.00;96876.41;5075503;28;20386;-73
2022/10/05 04:52:16;;;;;;;0.10;0.10;;;;;;;8.56;100.00;96877.91;5075637;28;20031;-74
2022/10/05 04:55:23;;;;;;;0.10;0.10;;;;;;;8.60;100.00;96874.59;5077378;28;20035;-74
2022/10/05 04:58:35;;;;;;;0.10;0.10;;;;;;;8.62;100.00;96875.16;5076625;28;20071;-73
2022/10/05 05:01:46;;;;;;;0.10;0.10;;;;;;;8.65;100.00;96885.41;5086212;28;20044;-73
2022/10/05 05:04:51;;;;;;;;;;;;;;;8.71;100.00;96874.84;5063796;28;20521;-74
2022/10/05 05:07:53;;;;;;;0.10;0.10;;;;;;;8.78;100.00;96872.91;5078040;28;20354;-73
2022/10/05 05:10:52;;;;;;;0.10;0.10;;;;;;;8.82;100.00;96868.75;5091191;27;20462;-74
2022/10/05 05:13:55;;;;;;;0.10;0.10;;;;;;;8.87;100.00;96860.84;5091702;28;20030;-74
2022/10/05 05:17:00;;;;;;;0.10;0.10;;;;;;;8.95;100.00;96881.91;5091379;28;20086;-75
2022/10/05 05:20:01;;;;;;;0.10;0.10;;;;;;;8.99;100.00;96876.94;5076754;28;20031;-76
2022/10/05 05:22:49;;;;;;;0.10;0.10;;;;;;;9.01;100.00;96883.66;5093821;28;20540;-77
2022/10/05 05:25:46;;;;;;;0.10;0.10;;;;;;;9.02;100.00;96885.28;5090497;28;20504;-76
2022/10/05 05:29:04;;;;;;;0.10;0.10;;;;;;;8.99;100.00;96877.75;5077289;28;20832;-75
2022/10/05 05:32:07;;;;;;;0.10;0.10;;;;;;;9.01;100.00;96886.31;5068799;28;20058;-74
2022/10/05 05:35:31;;;;;;;0.10;0.10;;;;;;;9.00;100.00;96890.03;5071984;28;21334;-73
2022/10/05 05:38:29;;;;;;;0.10;0.10;;;;;;;9.00;100.00;96887.38;5056863;28;20047;-73
2022/10/05 05:41:38;;;;;;;0.10;0.10;;;;;;;9.00;100.00;96890.03;5074546;28;20540;-74
2022/10/05 05:44:26;;;;;;;0.10;0.10;;;;;;;8.90;100.00;96879.91;5075951;28;20032;-74
2022/10/05 05:47:18;;;;;;;0.10;0.10;;;;;;;8.88;100.00;96894.53;5074721;28;20154;-74
2022/10/05 05:50:31;;;;;;;0.10;0.10;;;;;;;8.82;100.00;96900.78;5073135;28;20047;-73
2022/10/05 05:53:31;;;;;;;0.10;0.10;;;;;;;8.78;100.00;96894.25;5076773;28;20092;-74
2022/10/05 05:56:33;;;;;;;0.10;0.10;;;;;;;8.73;100.00;96891.47;5055537;28;20394;-73
2022/10/05 05:59:31;;;;;;;0.10;0.10;;;;;;;8.63;100.00;96898.13;5088370;28;20051;-73
2022/10/05 06:02:28;;;;;;;0.10;0.10;;;;;;;8.60;100.00;96898.59;5077462;28;20465;-74
2022/10/05 06:05:26;;;;;;;0.10;0.10;;;;;;;8.54;100.00;96896.81;5087516;28;20440;-74
2022/10/05 06:08:29;;;;;;;0.10;0.10;;;;;;;8.53;100.00;96905.88;5067974;28;20044;-74
2022/10/05 06:11:45;;;;;;;0.30;0.20;;;;;;;8.57;100.00;96903.56;5074479;28;20047;-74
2022/10/05 06:15:24;;;;;;;0.15;0.15;;;;;;;8.61;100.00;96902.88;5082356;28;20122;-75
2022/10/05 06:18:18;;;;;;;0.10;0.10;;;;;;;8.62;100.00;96901.03;5064497;28;20455;-75
2022/10/05 06:21:14;;;;;;;0.10;0.10;;;;;;;8.69;100.00;96908.94;5071603;28;20065;-75
2022/10/05 06:24:13;;;;;;;0.10;0.10;;;;;;;8.68;100.00;96902.81;5077928;28;20153;-75
2022/10/05 06:27:19;;;;;;;0.10;0.10;;;;;;;8.71;100.00;96912.19;5076853;28;20040;-74
2022/10/05 06:30:29;;;;;;;0.20;0.10;;;;;;;8.72;100.00;96906.66;5072414;28;20054;-75
2022/10/05 06:33:19;;;;;;;0.10;0.10;;;;;;;8.81;100.00;96912.50;5058810;28;20059;-75
2022/10/05 06:36:17;;;;;;;0.10;0.10;;;;;;;8.91;100.00;96910.09;5053778;28;20058;-74
2022/10/05 06:39:16;;;;;;;0.10;0.10;;;;;;;9.00;100.00;96900.72;5063305;28;20059;-74
2022/10/05 06:42:21;;;;;;;0.10;0.10;;;;;;;9.34;100.00;96909.03;5065778;28;20032;-75
2022/10/05 06:45:58;;;;;;;0.10;0.10;;;;;;;9.85;100.00;96892.34;5057655;28;20612;-75
2022/10/05 06:49:09;;;;;;;0.10;0.10;;;;;;;10.10;100.00;96892.09;5075757;28;20047;-74
2022/10/05 06:52:11;;;;;;;0.20;0.10;;;;;;;10.24;100.00;96890.84;5070525;28;20401;-75
2022/10/05 06:55:09;;;;;;;0.10;0.10;;;;;;;10.43;100.00;96883.47;5090487;28;20161;-75
2022/10/05 06:58:17;;;;;;;0.32;0.10;;;;;;;10.57;100.00;96886.69;5083170;28;20071;-74
2022/10/05 07:01:24;;;;;;;0.10;0.10;;;;;;;10.69;100.00;96886.66;5071506;28;20423;-75
2022/10/05 07:04:35;;;;;;;0.10;0.10;;;;;;;10.50;100.00;96886.81;5073658;28;20506;-76
2022/10/05 07:07:43;;;;;;;0.00;0.00;;;;;;;10.37;100.00;96884.41;5067568;28;20032;-76
2022/10/05 07:10:35;;;;;;;0.10;0.10;;;;;;;10.30;100.00;96884.56;5068818;28;20074;-75
2022/10/05 07:13:29;;;;;;;0.10;0.10;;;;;;;10.24;100.00;96880.13;5071322;28;20040;-75
2022/10/05 07:16:38;;;;;;;0.10;0.10;;;;;;;10.22;100.00;96876.91;5087404;28;20667;-76
2022/10/05 07:20:02;;;;;;;0.10;0.10;;;;;;;10.28;100.00;96877.81;5075574;28;20466;-76
2022/10/05 07:23:08;;;;;;;0.10;0.10;;;;;;;10.39;100.00;96876.97;5075665;28;20496;-76
2022/10/05 07:26:22;;;;;;;0.10;0.10;;;;;;;10.80;100.00;96881.22;5072158;28;20043;-76
2022/10/05 07:29:09;;;;;;;0.10;0.10;;;;;;;11.12;100.00;96881.53;5058969;28;20127;-77
2022/10/05 07:32:09;;;;;;;0.10;0.10;;;;;;;11.38;100.00;96879.31;5076511;28;20454;-76
2022/10/05 07:38:44;;;;;;;0.10;0.10;;;;;;;11.30;100.00;96880.53;5085730;28;20039;-76
2022/10/05 07:41:42;;;;;;;0.10;0.10;;;;;;;11.38;100.00;96890.03;5060730;28;20343;-76
2022/10/05 07:44:34;;;;;;;0.10;0.10;;;;;;;11.39;100.00;96886.28;5073993;28;20275;-76
2022/10/05 07:47:32;;;;;;;0.10;0.10;;;;;;;11.29;100.00;96886.13;5086167;28;20039;-76
2022/10/05 07:50:37;;;;;;;0.10;0.10;;;;;;;11.34;100.00;96889.69;5086949;28;20036;-76
2022/10/05 07:53:53;;;;;;;0.10;0.10;;;;;;;11.54;100.00;96893.78;5087192;28;20088;-76
2022/10/05 07:56:42;;;;;;;0.10;0.10;;;;;;;11.65;100.00;96887.50;5070133;28;20110;-76
2022/10/05 07:59:34;;;;;;;0.10;0.10;;;;;;;11.72;100.00;96885.47;5060525;28;20528;-76
2022/10/05 08:02:40;;;;;;;0.10;0.10;;;;;;;11.88;100.00;96883.84;5074505;28;20035;-76
2022/10/05 08:05:31;;;;;;;0.10;0.10;;;;;;;11.95;100.00;96882.63;5083732;28;20043;-76
2022/10/05 08:08:35;;;;;;;0.10;0.10;;;;;;;12.06;100.00;96872.03;5088539;28;20035;-76
2022/10/05 08:11:27;;;;;;;0.10;0.10;;;;;;;12.11;100.00;96878.28;5075189;28;20479;-75
2022/10/05 08:14:26;;;;;;;0.10;0.10;;;;;;;12.02;100.00;96879.78;5046678;28;20039;-77
2022/10/05 08:17:35;;;;;;;0.10;0.10;;;;;;;12.13;100.00;96875.34;5089811;28;20070;-76
2022/10/05 08:20:48;;;;;;;0.10;0.10;;;;;;;12.24;100.00;96874.44;5076884;28;20043;-75
2022/10/05 08:23:57;;;;;;;0.10;0.10;;;;;;;12.22;100.00;96874.69;5092895;28;20048;-75
2022/10/05 08:27:01;;;;;;;0.17;0.10;;;;;;;12.33;100.00;96875.63;5091761;28;20470;-75
2022/10/05 08:30:15;;;;;;;0.10;0.10;;;;;;;12.49;100.00;96872.06;5076989;28;20036;-75
2022/10/05 08:33:13;;;;;;;0.10;0.10;;;;;;;12.57;100.00;96875.38;5092789;28;20374;-74
2022/10/05 08:36:09;;;;;;;0.00;0.00;;;;;;;12.64;100.00;96868.75;5075946;28;20035;-75
2022/10/05 08:38:59;;;;;;;0.10;0.10;;;;;;;12.63;100.00;96879.75;5088714;28;20379;-75
2022/10/05 08:42:12;;;;;;;0.13;0.10;;;;;;;12.58;100.00;96880.50;5089015;28;20035;-74
2022/10/05 08:45:17;;;;;;;0.10;0.10;;;;;;;12.73;100.00;96877.16;5087526;28;20031;-75
2022/10/05 08:48:13;;;;;;;0.10;0.10;;;;;;;12.83;100.00;96869.22;5089246;28;20032;-75
2022/10/05 08:51:28;;;;;;;0.10;0.10;;;;;;;12.78;100.00;96882.59;5089845;28;20142;-74
2022/10/05 08:54:23;;;;;;;0.10;0.10;;;;;;;13.11;100.00;96874.34;5088724;28;20125;-75
2022/10/05 08:57:49;;;;;;;0.10;0.10;;;;;;;13.03;100.00;96877.50;5088809;28;20043;-75
2022/10/05 09:00:57;;;;;;;0.10;0.10;;;;;;;13.47;100.00;96871.22;5090565;28;20360;-75
2022/10/05 09:04:13;;;;;;;0.10;0.10;;;;;;;13.44;100.00;96871.69;5092355;28;20093;-76
2022/10/05 09:07:25;;;;;;;0.10;0.10;;;;;;;13.74;100.00;96866.56;5088644;28;20266;-75
2022/10/05 09:10:26;;;;;;;0.10;0.10;;;;;;;13.84;100.00;96869.31;5082254;28;20044;-76
2022/10/05 09:13:25;;;;;;;;;;;;;;;14.03;100.00;96867.03;5090030;27;20044;-76
2022/10/05 09:16:42;;;;;;;0.10;0.10;;;;;;;14.28;100.00;96850.19;5081239;28;20378;-76
2022/10/05 09:19:35;;;;;;;0.10;0.10;;;;;;;14.30;100.00;96853.41;5067464;28;20044;-76
2022/10/05 09:22:53;;;;;;;0.10;0.10;;;;;;;14.33;100.00;96857.50;5086563;28;20313;-76
2022/10/05 09:25:45;;;;;;;0.10;0.10;;;;;;;14.28;100.00;96868.22;5048458;28;20490;-76
2022/10/05 09:28:46;;;;;;;0.10;0.10;;;;;;;14.45;100.00;96852.69;5069394;28;20274;-76
2022/10/05 09:31:53;;;;;;;0.10;0.10;;;;;;;14.43;100.00;96857.53;5090175;28;20441;-75
2022/10/05 09:34:54;;;;;;;0.10;0.10;;;;;;;14.62;100.00;96856.00;5089774;28;20089;-75
2022/10/05 09:37:53;;;;;;;0.10;0.10;;;;;;;14.61;100.00;96862.47;5088177;28;20039;-76
2022/10/05 09:41:00;;;;;;;0.10;0.10;;;;;;;14.90;100.00;96849.34;5087245;28;20065;-75
2022/10/05 09:44:42;;;;;;;0.10;0.10;;;;;;;14.53;100.00;96854.91;5093018;28;20128;-76
2022/10/05 09:47:48;;;;;;;0.10;0.10;;;;;;;14.64;100.00;96847.69;5048692;28;20085;-76
2022/10/05 09:50:39;;;;;;;0.00;0.00;;;;;;;14.65;100.00;96841.22;5088753;27;20040;-76
2022/10/05 09:53:28;;;;;;;;;;;;;;;14.86;100.00;96852.84;5081746;28;20044;-76
2022/10/05 09:56:55;;;;;;;0.10;0.10;;;;;;;14.88;100.00;96832.66;5084690;28;19919;-76
2022/10/05 10:00:02;;;;;;;0.10;0.10;;;;;;;14.94;100.00;96833.44;5086043;27;20436;-75
2022/10/05 10:03:20;;;;;;;0.10;0.10;;;;;;;15.17;100.00;96841.03;5090633;28;20047;-76
2022/10/05 10:06:27;;;;;;;0.10;0.10;;;;;;;15.46;100.00;96835.13;5084295;28;20086;-77
2022/10/05 10:09:28;;;;;;;0.10;0.10;;;;;;;16.35;100.00;96825.53;5083815;28;20385;-76
2022/10/05 10:12:29;;;;;;;0.10;0.10;;;;;;;16.66;100.00;96826.22;5089911;28;20529;-77
2022/10/05 10:15:39;;;;;;;0.20;0.20;;;;;;;20.94;100.00;96823.25;5079288;28;20044;-77
2022/10/05 10:18:56;;;;;;;0.10;0.10;;;;;;;22.75;86.55;96805.22;5087780;28;20044;-76
2022/10/05 10:22:00;;;;;;;0.10;0.10;;;;;;;24.05;69.56;96805.19;5089804;28;20051;-77
2022/10/05 10:24:56;;;;;;;0.20;0.20;;;;;;;22.88;73.14;96803.53;5088333;27;20396;-77
2022/10/05 10:27:53;;;;;;;0.20;0.20;;;;;;;22.28;84.43;96806.06;5091070;28;20611;-77
2022/10/05 10:30:47;;;;;;;0.10;0.10;;;;;;;22.92;72.54;96801.75;4729408;27;10000484;-76
2022/10/05 10:34:10;;;;;;;0.10;0.10;;;;;;;19.30;100.00;96805.63;5073800;28;20105;-76
2022/10/05 10:37:15;;;;;;;0.10;0.10;;;;;;;19.34;100.00;96798.53;5084711;28;20100;-76
2022/10/05 10:40:24;;;;;;;0.20;0.20;;;;;;;20.81;97.82;96801.19;5072485;28;20050;-77
2022/10/05 10:43:25;;;;;;;0.10;0.10;;;;;;;24.40;66.71;96786.72;5089602;28;20039;-77
2022/10/05 10:48:54;;;;;;;0.10;0.10;;;;;;;24.32;63.62;96784.00;4983764;28;20504;-75
2022/10/05 10:52:11;;;;;;;0.10;0.10;;;;;;;22.07;81.29;96784.78;4983366;28;20041;-75
2022/10/05 10:55:26;;;;;;;0.10;0.10;;;;;;;22.15;83.53;96777.78;4987699;28;20229;-76
2022/10/05 10:58:15;;;;;;;0.30;0.20;;;;;;;25.96;54.69;96773.75;4987564;28;20107;-76
2022/10/05 11:01:19;;;;;;;0.10;0.10;;;;;;;27.54;48.17;96767.25;4989589;28;20093;-75
2022/10/05 11:04:24;;;;;;;0.10;0.10;;;;;;;27.38;44.77;96764.47;4099611;28;10000884;-76
2022/10/05 11:07:56;;;;;;;0.10;0.10;;;;;;;27.39;44.54;96776.25;4963620;28;20045;-75
2022/10/05 11:11:01;;;;;;;0.10;0.10;;;;;;;26.60;44.42;96790.38;4964536;28;20042;-76
2022/10/05 11:14:12;;;;;;;0.10;0.10;;;;;;;28.02;42.69;96768.97;4936723;28;20162;-76
2022/10/05 11:17:01;;;;;;;0.10;0.10;;;;;;;29.49;42.34;96775.88;4960649;28;20605;-76
2022/10/05 11:20:00;;;;;;;0.10;0.10;;;;;;;30.28;37.58;96764.38;4092406;28;10000676;-76
2022/10/05 11:23:42;;;;;;;0.10;0.10;;;;;;;31.39;34.20;96764.03;4962632;28;20348;-76
2022/10/05 11:26:54;;;;;;;0.10;0.10;;;;;;;33.22;31.67;96762.47;4960331;28;20188;-76
2022/10/05 11:30:04;;;;;;;0.10;0.10;;;;;;;29.74;35.11;96768.13;4962986;28;20690;-76
2022/10/05 11:33:10;;;;;;;0.10;0.10;;;;;;;30.78;35.13;96760.44;4963279;28;20050;-76
2022/10/05 11:36:33;;;;;;;0.10;0.10;;;;;;;31.44;34.27;96760.94;4963452;28;20045;-75
2022/10/05 11:39:37;;;;;;;0.10;0.10;;;;;;;29.92;35.18;96777.53;4958979;28;20090;-76
2022/10/05 11:42:38;;;;;;;0.10;0.10;;;;;;;28.60;38.57;96768.44;4967430;28;20049;-77
2022/10/05 11:45:27;;;;;;;0.10;0.10;;;;;;;30.72;34.51;96750.09;4967962;28;21058;-77
2022/10/05 11:48:34;;;;;;;0.00;0.00;;;;;;;31.91;34.08;96736.56;4960134;28;20431;-77
2022/10/05 11:51:20;;;;;;;0.10;0.10;;;;;;;31.19;34.29;96737.69;4968681;28;20042;-77
2022/10/05 11:54:08;;;;;;;0.00;0.00;;;;;;;29.13;37.96;96749.56;4965946;28;20038;-77
2022/10/05 11:57:02;;;;;;;0.10;0.10;;;;;;;30.40;37.15;96739.31;4967591;28;20445;-77
2022/10/05 12:00:08;;;;;;;0.10;0.10;;;;;;;28.01;38.76;96747.31;4966272;28;20251;-77
2022/10/05 12:03:11;;;;;;;0.10;0.10;;;;;;;32.04;33.16;96743.41;4961281;28;20853;-76
2022/10/05 12:06:13;;;;;;;0.10;0.10;;;;;;;32.20;32.12;96729.31;4964893;28;20134;-77
2022/10/05 12:09:03;;;;;;;0.10;0.10;;;;;;;28.30;37.79;96752.41;4954939;28;20490;-76
2022/10/05 12:11:57;;;;;;;0.10;0.10;;;;;;;28.89;37.50;96725.81;4922262;28;20308;-77
2022/10/05 12:14:51;;;;;;;0.10;0.10;;;;;;;27.86;40.06;96726.94;4942793;28;20137;-76
2022/10/05 12:17:58;;;;;;;0.10;0.10;;;;;;;29.26;36.63;96729.00;4966689;28;20050;-77
2022/10/05 12:21:07;;;;;;;0.10;0.10;;;;;;;31.30;35.13;96720.09;4967035;28;20137;-77
2022/10/05 12:24:11;;;;;;;0.10;0.10;;;;;;;32.63;31.24;96717.41;4931315;28;20344;-77
2022/10/05 12:27:10;;;;;;;0.10;0.10;;;;;;;32.02;32.38;96707.81;4969706;28;20192;-77
2022/10/05 12:30:14;;;;;;;0.10;0.10;;;;;;;31.67;32.39;96718.50;4969071;28;20209;-77
2022/10/05 12:33:02;;;;;;;0.10;0.10;;;;;;;31.63;33.26;96718.50;4970978;28;21297;-77
2022/10/05 13:05:55;;;;;;;0.10;0.10;;;;;;;32.11;33.55;96704.72;5007035;23;20695;-84
2022/10/05 13:11:48;;;;;;;0.10;0.10;;;;;;;30.83;34.25;96701.34;5274201;23;20478;-77
2022/10/05 13:14:48;;;;;;;0.10;0.10;;;;;;;32.32;32.27;96682.78;4931063;28;20574;-77
2022/10/05 13:17:54;;;;;;;0.00;0.00;;;;;;;32.06;31.98;96696.78;4929886;28;20202;-78
2022/10/05 13:29:27;;;;;;;0.10;0.10;;;;;;;33.92;28.26;96682.66;5038076;23;20052;-78
2022/10/05 13:32:24;;;;;;;0.10;0.10;;;;;;;33.48;29.22;96686.56;4910802;29;20707;-78
2022/10/05 13:35:39;;;;;;;0.10;0.10;;;;;;;30.54;32.72;96699.31;4930490;28;20487;-78
2022/10/05 13:38:40;;;;;;;0.05;0.05;;;;;;;30.32;34.09;96687.16;4918659;28;20039;-78
2022/10/05 13:41:31;;;;;;;0.08;0.08;;;;;;;30.97;34.25;96671.13;4924404;28;20116;-78
2022/10/05 13:44:26;;;;;;;0.10;0.10;;;;;;;32.79;31.75;96667.22;4924681;28;20123;-78
2022/10/05 13:47:43;;;;;;;0.10;0.10;;;;;;;34.30;30.22;96669.16;4921776;29;20522;-78
2022/10/05 13:50:33;;;;;;;0.10;0.10;;;;;;;30.94;33.75;96663.59;4932045;28;20435;-78
2022/10/05 13:53:22;;;;;;;0.10;0.10;;;;;;;29.93;35.67;96666.03;4927552;28;20066;-78
2022/10/05 13:56:17;;;;;;;0.03;0.03;;;;;;;29.95;35.21;96662.91;4908936;29;20134;-77
2022/10/05 13:59:15;;;;;;;0.03;0.03;;;;;;;30.09;35.75;96654.09;4924488;28;20103;-78
2022/10/05 14:02:07;;;;;;;0.10;0.10;;;;;;;28.86;37.28;96658.50;4926894;28;20051;-78
2022/10/05 14:05:12;;;;;;;0.10;0.10;;;;;;;30.04;36.67;96646.09;4926060;28;20388;-77
2022/10/05 14:08:00;;;;;;;0.10;0.10;;;;;;;29.45;37.58;96651.00;4928285;28;20040;-77
2022/10/05 14:10:46;;;;;;;0.10;0.10;;;;;;;29.32;38.62;96642.09;4927271;28;20373;-77
2022/10/05 14:13:47;;;;;;;0.10;0.10;;;;;;;28.65;38.09;96632.50;4923730;28;20511;-77
2022/10/05 14:16:34;;;;;;;;;;;;;;;29.25;37.78;96643.91;4923223;28;20067;-77
2022/10/05 14:19:23;;;;;;;0.10;0.10;;;;;;;29.90;37.77;96630.13;4910291;28;19978;-77
2022/10/05 14:22:23;;;;;;;0.10;0.10;;;;;;;31.25;34.24;96620.16;4924722;28;20043;-77
2022/10/05 14:25:15;;;;;;;0.08;0.08;;;;;;;31.91;33.01;96623.94;4922521;28;20071;-77
2022/10/05 14:28:10;;;;;;;0.10;0.10;;;;;;;31.78;32.96;96615.16;4923885;28;20047;-77
2022/10/05 14:30:59;;;;;;;0.10;0.10;;;;;;;32.33;32.50;96606.84;4896493;28;20043;-77
2022/10/05 14:33:46;;;;;;;0.10;0.10;;;;;;;30.33;35.38;96617.00;4886612;28;20142;-77
2022/10/05 14:36:35;;;;;;;0.10;0.10;;;;;;;29.94;34.87;96606.16;4899562;28;20523;-77
2022/10/05 14:39:24;;;;;;;0.10;0.10;;;;;;;28.68;38.29;96618.78;4922860;28;20640;-77
2022/10/05 14:42:23;;;;;;;0.10;0.10;;;;;;;28.28;39.73;96608.09;4921056;28;20231;-77
2022/10/05 14:45:17;;;;;;;0.00;0.00;;;;;;;29.39;37.95;96594.59;4922829;28;20122;-77
2022/10/05 14:48:09;;;;;;;0.10;0.10;;;;;;;30.01;36.30;96586.94;4926666;28;20039;-77
2022/10/05 14:50:58;;;;;;;0.10;0.10;;;;;;;29.05;37.48;96591.63;4927058;28;20043;-77
2022/10/05 15:20:23;;;;;;;0.00;0.00;;;;;;;20.48;85.16;96593.19;5090413;23;20783;-73
2022/10/05 15:23:12;;;;;;;0.15;0.00;;;;;;;20.21;90.19;96594.84;5064657;28;20052;-75
2022/10/05 15:25:57;;;;;;;0.00;0.00;;;;;;;20.09;94.46;96593.81;5061139;28;20090;-75
2022/10/05 15:29:00;;;;;;;0.00;0.00;;;;;;;19.21;100.00;96583.06;5063579;28;20040;-75